sensor_id;sensor_type;location;lat;lon;timestamp;P1;durP1;ratioP1;P2;durP2;ratioP2
13208;SDS011;6669;42.678;23.332;2023-06-26T00:01:28;11.93;;;9.93;;
13208;SDS011;6669;42.678;23.332;2023-06-26T00:03:57;11.05;;;9.57;;
13208;SDS011;6669;42.678;23.332;2023-06-26T00:06:26;11.80;;;9.93;;
13208;SDS011;6669;42.678;23.332;2023-06-26T00:08:56;12.57;;;10.30;;
13208;SDS011;6669;42.678;23.332;2023-06-26T00:11:25;12.15;;;9.55;;
13208;SDS011;6669;42.678;23.332;2023-06-26T00:13:54;12.43;;;9.27;;
13208;SDS011;6669;42.678;23.332;2023-06-26T00:16:22;11.88;;;9.65;;
13208;SDS011;6669;42.678;23.332;2023-06-26T00:18:50;10.95;;;9.07;;
13208;SDS011;6669;42.678;23.332;2023-06-26T00:21:18;11.75;;;9.93;;
13208;SDS011;6669;42.678;23.332;2023-06-26T00:23:46;11.25;;;9.95;;
13208;SDS011;6669;42.678;23.332;2023-06-26T00:26:15;10.98;;;9.68;;
13208;SDS011;6669;42.678;23.332;2023-06-26T00:28:43;10.38;;;9.05;;
13208;SDS011;6669;42.678;23.332;2023-06-26T00:31:11;11.23;;;9.07;;
13208;SDS011;6669;42.678;23.332;2023-06-26T00:33:39;9.30;;;8.32;;
13208;SDS011;6669;42.678;23.332;2023-06-26T00:36:07;10.02;;;8.70;;
13208;SDS011;6669;42.678;23.332;2023-06-26T00:38:35;9.60;;;8.27;;
13208;SDS011;6669;42.678;23.332;2023-06-26T00:41:03;9.38;;;8.35;;
13208;SDS011;6669;42.678;23.332;2023-06-26T00:43:33;9.13;;;8.07;;
13208;SDS011;6669;42.678;23.332;2023-06-26T00:46:01;9.75;;;7.47;;
13208;SDS011;6669;42.678;23.332;2023-06-26T00:48:29;9.18;;;8.23;;
13208;SDS011;6669;42.678;23.332;2023-06-26T00:50:57;8.95;;;7.63;;
13208;SDS011;6669;42.678;23.332;2023-06-26T00:53:25;10.02;;;7.55;;
13208;SDS011;6669;42.678;23.332;2023-06-26T00:55:53;8.43;;;7.43;;
13208;SDS011;6669;42.678;23.332;2023-06-26T00:58:22;8.80;;;7.93;;
13208;SDS011;6669;42.678;23.332;2023-06-26T01:00:53;8.65;;;7.68;;
13208;SDS011;6669;42.678;23.332;2023-06-26T01:03:22;8.93;;;7.90;;
13208;SDS011;6669;42.678;23.332;2023-06-26T01:05:50;8.48;;;7.60;;
13208;SDS011;6669;42.678;23.332;2023-06-26T01:08:19;8.13;;;7.32;;
13208;SDS011;6669;42.678;23.332;2023-06-26T01:10:48;9.82;;;7.32;;
13208;SDS011;6669;42.678;23.332;2023-06-26T01:13:16;8.75;;;7.90;;
13208;SDS011;6669;42.678;23.332;2023-06-26T01:15:45;8.50;;;7.47;;
13208;SDS011;6669;42.678;23.332;2023-06-26T01:18:15;8.57;;;7.68;;
13208;SDS011;6669;42.678;23.332;2023-06-26T01:20:43;9.75;;;7.55;;
13208;SDS011;6669;42.678;23.332;2023-06-26T01:23:14;8.93;;;7.65;;
13208;SDS011;6669;42.678;23.332;2023-06-26T01:25:51;9.07;;;8.18;;
13208;SDS011;6669;42.678;23.332;2023-06-26T01:28:29;9.23;;;8.23;;
13208;SDS011;6669;42.678;23.332;2023-06-26T01:30:59;9.75;;;7.80;;
13208;SDS011;6669;42.678;23.332;2023-06-26T01:33:28;8.48;;;7.57;;
13208;SDS011;6669;42.678;23.332;2023-06-26T01:35:56;8.65;;;7.85;;
13208;SDS011;6669;42.678;23.332;2023-06-26T01:38:24;7.97;;;7.18;;
13208;SDS011;6669;42.678;23.332;2023-06-26T01:40:53;8.70;;;7.72;;
13208;SDS011;6669;42.678;23.332;2023-06-26T01:43:23;8.52;;;7.63;;
13208;SDS011;6669;42.678;23.332;2023-06-26T01:45:58;10.13;;;7.28;;
13208;SDS011;6669;42.678;23.332;2023-06-26T01:48:32;9.52;;;8.52;;
13208;SDS011;6669;42.678;23.332;2023-06-26T01:51:05;8.18;;;7.38;;
13208;SDS011;6669;42.678;23.332;2023-06-26T01:53:36;10.23;;;8.15;;
13208;SDS011;6669;42.678;23.332;2023-06-26T01:56:10;8.23;;;7.43;;
13208;SDS011;6669;42.678;23.332;2023-06-26T01:58:42;9.90;;;7.95;;
13208;SDS011;6669;42.678;23.332;2023-06-26T02:01:14;8.13;;;7.32;;
13208;SDS011;6669;42.678;23.332;2023-06-26T02:03:43;9.60;;;7.20;;
13208;SDS011;6669;42.678;23.332;2023-06-26T02:06:11;8.57;;;7.78;;
13208;SDS011;6669;42.678;23.332;2023-06-26T02:08:39;9.38;;;7.40;;
13208;SDS011;6669;42.678;23.332;2023-06-26T02:11:07;9.75;;;8.25;;
13208;SDS011;6669;42.678;23.332;2023-06-26T02:13:35;8.63;;;7.45;;
13208;SDS011;6669;42.678;23.332;2023-06-26T02:16:03;8.82;;;8.00;;
13208;SDS011;6669;42.678;23.332;2023-06-26T02:18:33;9.05;;;8.23;;
13208;SDS011;6669;42.678;23.332;2023-06-26T02:21:02;9.88;;;8.80;;
13208;SDS011;6669;42.678;23.332;2023-06-26T02:23:31;10.52;;;7.93;;
13208;SDS011;6669;42.678;23.332;2023-06-26T02:25:59;9.30;;;8.38;;
13208;SDS011;6669;42.678;23.332;2023-06-26T02:28:27;9.45;;;8.50;;
13208;SDS011;6669;42.678;23.332;2023-06-26T02:30:57;11.68;;;8.85;;
13208;SDS011;6669;42.678;23.332;2023-06-26T02:33:25;9.88;;;8.77;;
13208;SDS011;6669;42.678;23.332;2023-06-26T02:35:54;10.45;;;8.65;;
13208;SDS011;6669;42.678;23.332;2023-06-26T02:38:22;9.88;;;8.85;;
13208;SDS011;6669;42.678;23.332;2023-06-26T02:40:50;10.20;;;9.10;;
13208;SDS011;6669;42.678;23.332;2023-06-26T02:43:18;11.20;;;9.43;;
13208;SDS011;6669;42.678;23.332;2023-06-26T02:45:46;10.27;;;9.13;;
13208;SDS011;6669;42.678;23.332;2023-06-26T02:48:14;11.55;;;9.48;;
13208;SDS011;6669;42.678;23.332;2023-06-26T02:50:42;9.75;;;8.85;;
13208;SDS011;6669;42.678;23.332;2023-06-26T02:53:13;10.52;;;9.18;;
13208;SDS011;6669;42.678;23.332;2023-06-26T02:55:42;11.70;;;10.43;;
13208;SDS011;6669;42.678;23.332;2023-06-26T02:58:10;11.70;;;9.43;;
13208;SDS011;6669;42.678;23.332;2023-06-26T03:00:38;11.32;;;9.98;;
13208;SDS011;6669;42.678;23.332;2023-06-26T03:03:08;10.77;;;9.60;;
13208;SDS011;6669;42.678;23.332;2023-06-26T03:05:36;11.15;;;9.98;;
13208;SDS011;6669;42.678;23.332;2023-06-26T03:08:04;12.38;;;10.48;;
13208;SDS011;6669;42.678;23.332;2023-06-26T03:10:34;12.38;;;9.95;;
13208;SDS011;6669;42.678;23.332;2023-06-26T03:13:02;12.05;;;10.73;;
13208;SDS011;6669;42.678;23.332;2023-06-26T03:15:30;12.32;;;11.02;;
13208;SDS011;6669;42.678;23.332;2023-06-26T03:17:58;12.13;;;10.55;;
13208;SDS011;6669;42.678;23.332;2023-06-26T03:20:26;12.10;;;10.80;;
13208;SDS011;6669;42.678;23.332;2023-06-26T03:22:54;11.88;;;10.65;;
13208;SDS011;6669;42.678;23.332;2023-06-26T03:25:22;11.95;;;10.75;;
13208;SDS011;6669;42.678;23.332;2023-06-26T03:27:51;12.23;;;10.93;;
13208;SDS011;6669;42.678;23.332;2023-06-26T03:30:20;12.55;;;11.25;;
13208;SDS011;6669;42.678;23.332;2023-06-26T03:32:48;12.38;;;10.93;;
13208;SDS011;6669;42.678;23.332;2023-06-26T03:35:16;12.27;;;11.00;;
13208;SDS011;6669;42.678;23.332;2023-06-26T03:37:44;12.02;;;10.80;;
13208;SDS011;6669;42.678;23.332;2023-06-26T03:40:12;12.32;;;11.00;;
13208;SDS011;6669;42.678;23.332;2023-06-26T03:42:41;13.50;;;11.35;;
13208;SDS011;6669;42.678;23.332;2023-06-26T03:45:12;12.73;;;11.43;;
13208;SDS011;6669;42.678;23.332;2023-06-26T03:47:40;12.57;;;11.32;;
13208;SDS011;6669;42.678;23.332;2023-06-26T03:50:08;12.20;;;11.00;;
13208;SDS011;6669;42.678;23.332;2023-06-26T03:52:36;12.70;;;10.75;;
13208;SDS011;6669;42.678;23.332;2023-06-26T03:55:04;12.32;;;10.88;;
13208;SDS011;6669;42.678;23.332;2023-06-26T03:57:33;12.85;;;11.55;;
13208;SDS011;6669;42.678;23.332;2023-06-26T04:00:01;11.70;;;10.50;;
13208;SDS011;6669;42.678;23.332;2023-06-26T04:02:33;13.80;;;12.32;;
13208;SDS011;6669;42.678;23.332;2023-06-26T04:05:02;10.77;;;9.68;;
13208;SDS011;6669;42.678;23.332;2023-06-26T04:07:33;11.55;;;10.32;;
13208;SDS011;6669;42.678;23.332;2023-06-26T04:10:02;12.75;;;10.48;;
13208;SDS011;6669;42.678;23.332;2023-06-26T04:12:30;12.18;;;10.95;;
13208;SDS011;6669;42.678;23.332;2023-06-26T04:14:58;10.68;;;9.65;;
13208;SDS011;6669;42.678;23.332;2023-06-26T04:17:26;10.02;;;9.02;;
13208;SDS011;6669;42.678;23.332;2023-06-26T04:19:56;11.10;;;10.00;;
13208;SDS011;6669;42.678;23.332;2023-06-26T04:22:24;11.63;;;10.43;;
13208;SDS011;6669;42.678;23.332;2023-06-26T04:24:52;10.98;;;9.85;;
13208;SDS011;6669;42.678;23.332;2023-06-26T04:27:21;11.98;;;9.57;;
13208;SDS011;6669;42.678;23.332;2023-06-26T04:29:49;10.18;;;9.18;;
13208;SDS011;6669;42.678;23.332;2023-06-26T04:32:17;11.52;;;9.15;;
13208;SDS011;6669;42.678;23.332;2023-06-26T04:34:45;10.68;;;9.55;;
13208;SDS011;6669;42.678;23.332;2023-06-26T04:37:15;10.15;;;9.13;;
13208;SDS011;6669;42.678;23.332;2023-06-26T04:39:43;10.27;;;9.25;;
13208;SDS011;6669;42.678;23.332;2023-06-26T04:42:11;12.02;;;9.82;;
13208;SDS011;6669;42.678;23.332;2023-06-26T04:44:39;11.00;;;9.40;;
13208;SDS011;6669;42.678;23.332;2023-06-26T04:47:08;12.82;;;9.95;;
13208;SDS011;6669;42.678;23.332;2023-06-26T04:49:36;11.02;;;9.95;;
13208;SDS011;6669;42.678;23.332;2023-06-26T04:52:05;10.95;;;9.90;;
13208;SDS011;6669;42.678;23.332;2023-06-26T04:54:34;11.00;;;9.88;;
13208;SDS011;6669;42.678;23.332;2023-06-26T04:57:02;11.13;;;9.93;;
13208;SDS011;6669;42.678;23.332;2023-06-26T04:59:30;11.27;;;10.18;;
13208;SDS011;6669;42.678;23.332;2023-06-26T05:01:58;10.90;;;9.80;;
13208;SDS011;6669;42.678;23.332;2023-06-26T05:04:31;9.68;;;8.68;;
13208;SDS011;6669;42.678;23.332;2023-06-26T05:07:00;10.80;;;9.50;;
13208;SDS011;6669;42.678;23.332;2023-06-26T05:09:28;10.38;;;9.18;;
13208;SDS011;6669;42.678;23.332;2023-06-26T05:12:01;10.63;;;9.48;;
13208;SDS011;6669;42.678;23.332;2023-06-26T05:14:30;10.35;;;9.35;;
13208;SDS011;6669;42.678;23.332;2023-06-26T05:16:59;9.90;;;8.98;;
13208;SDS011;6669;42.678;23.332;2023-06-26T05:19:27;9.93;;;8.95;;
13208;SDS011;6669;42.678;23.332;2023-06-26T05:21:55;10.57;;;9.57;;
13208;SDS011;6669;42.678;23.332;2023-06-26T05:24:23;9.90;;;8.90;;
13208;SDS011;6669;42.678;23.332;2023-06-26T05:26:54;10.70;;;9.35;;
13208;SDS011;6669;42.678;23.332;2023-06-26T05:29:24;9.30;;;8.40;;
13208;SDS011;6669;42.678;23.332;2023-06-26T05:31:53;10.18;;;9.13;;
13208;SDS011;6669;42.678;23.332;2023-06-26T05:34:23;9.90;;;8.90;;
13208;SDS011;6669;42.678;23.332;2023-06-26T05:36:52;9.30;;;8.40;;
13208;SDS011;6669;42.678;23.332;2023-06-26T05:39:25;9.77;;;8.77;;
13208;SDS011;6669;42.678;23.332;2023-06-26T05:41:53;9.05;;;8.15;;
13208;SDS011;6669;42.678;23.332;2023-06-26T05:44:22;8.82;;;8.00;;
13208;SDS011;6669;42.678;23.332;2023-06-26T05:46:51;9.05;;;8.15;;
13208;SDS011;6669;42.678;23.332;2023-06-26T05:49:19;9.45;;;8.45;;
13208;SDS011;6669;42.678;23.332;2023-06-26T05:51:47;9.32;;;8.43;;
13208;SDS011;6669;42.678;23.332;2023-06-26T05:54:16;8.90;;;8.00;;
13208;SDS011;6669;42.678;23.332;2023-06-26T05:56:44;10.10;;;8.88;;
13208;SDS011;6669;42.678;23.332;2023-06-26T05:59:13;8.88;;;7.88;;
13208;SDS011;6669;42.678;23.332;2023-06-26T06:01:44;11.13;;;8.90;;
13208;SDS011;6669;42.678;23.332;2023-06-26T06:04:12;8.90;;;8.00;;
13208;SDS011;6669;42.678;23.332;2023-06-26T06:06:40;8.52;;;7.63;;
13208;SDS011;6669;42.678;23.332;2023-06-26T06:09:08;9.57;;;8.40;;
13208;SDS011;6669;42.678;23.332;2023-06-26T06:11:36;8.57;;;7.78;;
13208;SDS011;6669;42.678;23.332;2023-06-26T06:14:04;8.13;;;7.32;;
13208;SDS011;6669;42.678;23.332;2023-06-26T06:16:32;8.57;;;7.78;;
13208;SDS011;6669;42.678;23.332;2023-06-26T06:19:01;7.95;;;7.25;;
13208;SDS011;6669;42.678;23.332;2023-06-26T06:21:30;8.68;;;7.72;;
13208;SDS011;6669;42.678;23.332;2023-06-26T06:23:58;8.73;;;7.72;;
13208;SDS011;6669;42.678;23.332;2023-06-26T06:26:27;7.72;;;6.95;;
13208;SDS011;6669;42.678;23.332;2023-06-26T06:28:55;8.45;;;7.50;;
13208;SDS011;6669;42.678;23.332;2023-06-26T06:31:23;7.90;;;7.10;;
13208;SDS011;6669;42.678;23.332;2023-06-26T06:33:51;7.82;;;7.07;;
13208;SDS011;6669;42.678;23.332;2023-06-26T06:36:21;8.23;;;7.43;;
13208;SDS011;6669;42.678;23.332;2023-06-26T06:38:48;7.70;;;6.93;;
13208;SDS011;6669;42.678;23.332;2023-06-26T06:41:16;8.20;;;7.30;;
13208;SDS011;6669;42.678;23.332;2023-06-26T06:43:44;7.72;;;7.03;;
13208;SDS011;6669;42.678;23.332;2023-06-26T06:46:13;7.72;;;6.95;;
13208;SDS011;6669;42.678;23.332;2023-06-26T06:48:41;7.82;;;7.13;;
13208;SDS011;6669;42.678;23.332;2023-06-26T06:51:09;7.10;;;6.40;;
13208;SDS011;6669;42.678;23.332;2023-06-26T06:53:38;7.32;;;6.63;;
13208;SDS011;6669;42.678;23.332;2023-06-26T06:56:06;7.40;;;6.68;;
13208;SDS011;6669;42.678;23.332;2023-06-26T06:58:34;7.78;;;6.97;;
13208;SDS011;6669;42.678;23.332;2023-06-26T07:01:02;7.10;;;6.22;;
13208;SDS011;6669;42.678;23.332;2023-06-26T07:03:30;7.03;;;6.38;;
13208;SDS011;6669;42.678;23.332;2023-06-26T07:05:58;6.68;;;5.97;;
13208;SDS011;6669;42.678;23.332;2023-06-26T07:08:26;7.43;;;6.07;;
13208;SDS011;6669;42.678;23.332;2023-06-26T07:10:57;6.72;;;6.00;;
13208;SDS011;6669;42.678;23.332;2023-06-26T07:13:25;6.43;;;5.82;;
13208;SDS011;6669;42.678;23.332;2023-06-26T07:15:53;6.60;;;6.00;;
13208;SDS011;6669;42.678;23.332;2023-06-26T07:18:21;7.25;;;5.85;;
13208;SDS011;6669;42.678;23.332;2023-06-26T07:20:49;5.95;;;5.38;;
13208;SDS011;6669;42.678;23.332;2023-06-26T07:23:17;6.15;;;5.30;;
13208;SDS011;6669;42.678;23.332;2023-06-26T07:25:45;5.72;;;5.22;;
13208;SDS011;6669;42.678;23.332;2023-06-26T07:28:14;6.85;;;5.32;;
13208;SDS011;6669;42.678;23.332;2023-06-26T07:30:42;5.07;;;4.65;;
13208;SDS011;6669;42.678;23.332;2023-06-26T07:33:10;5.28;;;4.78;;
13208;SDS011;6669;42.678;23.332;2023-06-26T07:35:39;5.25;;;4.75;;
13208;SDS011;6669;42.678;23.332;2023-06-26T07:38:07;5.45;;;4.70;;
13208;SDS011;6669;42.678;23.332;2023-06-26T07:40:35;4.78;;;4.28;;
13208;SDS011;6669;42.678;23.332;2023-06-26T07:43:03;4.80;;;4.28;;
13208;SDS011;6669;42.678;23.332;2023-06-26T07:45:33;4.45;;;4.05;;
13208;SDS011;6669;42.678;23.332;2023-06-26T07:48:02;4.97;;;3.72;;
13208;SDS011;6669;42.678;23.332;2023-06-26T07:50:30;4.40;;;4.00;;
13208;SDS011;6669;42.678;23.332;2023-06-26T07:52:58;4.80;;;4.35;;
13208;SDS011;6669;42.678;23.332;2023-06-26T07:55:26;4.15;;;3.75;;
13208;SDS011;6669;42.678;23.332;2023-06-26T07:57:54;4.70;;;4.10;;
13208;SDS011;6669;42.678;23.332;2023-06-26T08:00:22;5.30;;;4.30;;
13208;SDS011;6669;42.678;23.332;2023-06-26T08:02:52;5.45;;;4.15;;
13208;SDS011;6669;42.678;23.332;2023-06-26T08:05:20;4.38;;;3.97;;
13208;SDS011;6669;42.678;23.332;2023-06-26T08:07:49;4.85;;;4.43;;
13208;SDS011;6669;42.678;23.332;2023-06-26T08:10:17;4.53;;;4.13;;
13208;SDS011;6669;42.678;23.332;2023-06-26T08:12:45;4.35;;;3.95;;
13208;SDS011;6669;42.678;23.332;2023-06-26T08:15:13;5.35;;;4.82;;
13208;SDS011;6669;42.678;23.332;2023-06-26T08:17:41;4.22;;;3.85;;
13208;SDS011;6669;42.678;23.332;2023-06-26T08:20:11;3.70;;;3.40;;
13208;SDS011;6669;42.678;23.332;2023-06-26T08:22:43;3.45;;;3.15;;
13208;SDS011;6669;42.678;23.332;2023-06-26T08:25:12;4.25;;;3.72;;
13208;SDS011;6669;42.678;23.332;2023-06-26T08:27:40;3.70;;;3.40;;
13208;SDS011;6669;42.678;23.332;2023-06-26T08:30:09;4.43;;;3.75;;
13208;SDS011;6669;42.678;23.332;2023-06-26T08:32:37;4.68;;;3.72;;
13208;SDS011;6669;42.678;23.332;2023-06-26T08:35:06;4.20;;;3.80;;
13208;SDS011;6669;42.678;23.332;2023-06-26T08:37:38;4.13;;;3.72;;
13208;SDS011;6669;42.678;23.332;2023-06-26T08:40:06;4.10;;;3.80;;
13208;SDS011;6669;42.678;23.332;2023-06-26T08:42:35;4.50;;;4.10;;
13208;SDS011;6669;42.678;23.332;2023-06-26T08:45:03;3.95;;;3.65;;
13208;SDS011;6669;42.678;23.332;2023-06-26T08:47:32;4.20;;;3.80;;
13208;SDS011;6669;42.678;23.332;2023-06-26T08:50:04;4.07;;;3.67;;
13208;SDS011;6669;42.678;23.332;2023-06-26T08:52:36;4.43;;;3.53;;
13208;SDS011;6669;42.678;23.332;2023-06-26T08:55:09;4.20;;;3.60;;
13208;SDS011;6669;42.678;23.332;2023-06-26T08:57:38;3.58;;;3.28;;
13208;SDS011;6669;42.678;23.332;2023-06-26T09:00:09;3.60;;;3.30;;
13208;SDS011;6669;42.678;23.332;2023-06-26T09:02:38;4.90;;;3.50;;
13208;SDS011;6669;42.678;23.332;2023-06-26T09:05:11;3.50;;;3.20;;
13208;SDS011;6669;42.678;23.332;2023-06-26T09:07:40;3.83;;;3.53;;
13208;SDS011;6669;42.678;23.332;2023-06-26T09:10:09;3.70;;;3.40;;
13208;SDS011;6669;42.678;23.332;2023-06-26T09:12:37;3.60;;;3.30;;
13208;SDS011;6669;42.678;23.332;2023-06-26T09:15:06;3.92;;;3.55;;
13208;SDS011;6669;42.678;23.332;2023-06-26T09:17:38;3.58;;;3.28;;
13208;SDS011;6669;42.678;23.332;2023-06-26T09:20:08;3.83;;;3.42;;
13208;SDS011;6669;42.678;23.332;2023-06-26T09:22:40;3.58;;;3.28;;
13208;SDS011;6669;42.678;23.332;2023-06-26T09:25:12;3.55;;;3.15;;
13208;SDS011;6669;42.678;23.332;2023-06-26T09:27:40;3.22;;;2.92;;
13208;SDS011;6669;42.678;23.332;2023-06-26T09:30:10;3.45;;;3.15;;
13208;SDS011;6669;42.678;23.332;2023-06-26T09:32:39;3.60;;;3.30;;
13208;SDS011;6669;42.678;23.332;2023-06-26T09:35:07;3.25;;;2.95;;
13208;SDS011;6669;42.678;23.332;2023-06-26T09:37:35;3.40;;;3.10;;
13208;SDS011;6669;42.678;23.332;2023-06-26T09:40:05;4.75;;;3.17;;
13208;SDS011;6669;42.678;23.332;2023-06-26T09:42:34;3.08;;;2.78;;
13208;SDS011;6669;42.678;23.332;2023-06-26T09:45:03;3.58;;;3.28;;
13208;SDS011;6669;42.678;23.332;2023-06-26T09:47:34;3.88;;;3.33;;
13208;SDS011;6669;42.678;23.332;2023-06-26T09:50:03;3.53;;;3.20;;
13208;SDS011;6669;42.678;23.332;2023-06-26T09:52:32;4.20;;;3.20;;
13208;SDS011;6669;42.678;23.332;2023-06-26T09:55:10;3.70;;;3.35;;
13208;SDS011;6669;42.678;23.332;2023-06-26T09:57:38;3.30;;;3.00;;
13208;SDS011;6669;42.678;23.332;2023-06-26T10:00:08;3.55;;;3.25;;
13208;SDS011;6669;42.678;23.332;2023-06-26T10:02:38;6.63;;;3.00;;
13208;SDS011;6669;42.678;23.332;2023-06-26T10:05:07;5.30;;;3.20;;
13208;SDS011;6669;42.678;23.332;2023-06-26T10:07:35;3.45;;;3.15;;
13208;SDS011;6669;42.678;23.332;2023-06-26T10:10:04;3.33;;;3.00;;
13208;SDS011;6669;42.678;23.332;2023-06-26T10:12:36;3.38;;;3.08;;
13208;SDS011;6669;42.678;23.332;2023-06-26T10:15:04;4.10;;;3.10;;
13208;SDS011;6669;42.678;23.332;2023-06-26T10:17:37;3.25;;;2.67;;
13208;SDS011;6669;42.678;23.332;2023-06-26T10:20:08;3.38;;;2.97;;
13208;SDS011;6669;42.678;23.332;2023-06-26T10:22:37;3.55;;;3.25;;
13208;SDS011;6669;42.678;23.332;2023-06-26T10:25:12;3.42;;;3.13;;
13208;SDS011;6669;42.678;23.332;2023-06-26T10:27:47;3.58;;;3.28;;
13208;SDS011;6669;42.678;23.332;2023-06-26T10:30:20;4.05;;;2.92;;
13208;SDS011;6669;42.678;23.332;2023-06-26T10:32:52;3.30;;;2.97;;
13208;SDS011;6669;42.678;23.332;2023-06-26T10:35:20;3.90;;;3.50;;
13208;SDS011;6669;42.678;23.332;2023-06-26T10:37:49;3.35;;;3.00;;
13208;SDS011;6669;42.678;23.332;2023-06-26T10:40:21;3.80;;;3.38;;
13208;SDS011;6669;42.678;23.332;2023-06-26T10:42:55;3.28;;;2.97;;
13208;SDS011;6669;42.678;23.332;2023-06-26T10:45:33;3.40;;;3.10;;
13208;SDS011;6669;42.678;23.332;2023-06-26T10:48:03;3.75;;;3.42;;
13208;SDS011;6669;42.678;23.332;2023-06-26T10:50:32;3.65;;;3.30;;
13208;SDS011;6669;42.678;23.332;2023-06-26T10:53:12;3.35;;;3.05;;
13208;SDS011;6669;42.678;23.332;2023-06-26T10:55:48;3.80;;;3.40;;
13208;SDS011;6669;42.678;23.332;2023-06-26T10:58:29;4.38;;;2.90;;
13208;SDS011;6669;42.678;23.332;2023-06-26T11:03:49;3.35;;;3.00;;
13208;SDS011;6669;42.678;23.332;2023-06-26T11:06:29;3.20;;;2.90;;
13208;SDS011;6669;42.678;23.332;2023-06-26T11:09:06;3.90;;;2.95;;
13208;SDS011;6669;42.678;23.332;2023-06-26T11:11:54;3.50;;;3.20;;
13208;SDS011;6669;42.678;23.332;2023-06-26T11:14:26;2.90;;;2.70;;
13208;SDS011;6669;42.678;23.332;2023-06-26T11:16:55;3.38;;;3.08;;
13208;SDS011;6669;42.678;23.332;2023-06-26T11:19:25;3.65;;;3.20;;
13208;SDS011;6669;42.678;23.332;2023-06-26T11:21:57;4.55;;;3.13;;
13208;SDS011;6669;42.678;23.332;2023-06-26T11:24:26;4.30;;;3.90;;
13208;SDS011;6669;42.678;23.332;2023-06-26T11:27:01;2.97;;;2.78;;
13208;SDS011;6669;42.678;23.332;2023-06-26T11:29:32;3.83;;;3.53;;
13208;SDS011;6669;42.678;23.332;2023-06-26T11:32:01;4.00;;;3.08;;
13208;SDS011;6669;42.678;23.332;2023-06-26T11:34:32;4.18;;;3.35;;
13208;SDS011;6669;42.678;23.332;2023-06-26T11:37:01;3.13;;;2.85;;
13208;SDS011;6669;42.678;23.332;2023-06-26T11:39:30;3.80;;;3.40;;
13208;SDS011;6669;42.678;23.332;2023-06-26T11:41:59;3.05;;;2.75;;
13208;SDS011;6669;42.678;23.332;2023-06-26T11:44:29;3.28;;;2.97;;
13208;SDS011;6669;42.678;23.332;2023-06-26T11:46:59;3.67;;;2.75;;
13208;SDS011;6669;42.678;23.332;2023-06-26T11:49:29;3.45;;;3.15;;
13208;SDS011;6669;42.678;23.332;2023-06-26T11:51:57;3.35;;;2.90;;
13208;SDS011;6669;42.678;23.332;2023-06-26T11:54:26;3.38;;;2.97;;
13208;SDS011;6669;42.678;23.332;2023-06-26T11:56:55;3.95;;;2.90;;
13208;SDS011;6669;42.678;23.332;2023-06-26T11:59:24;3.35;;;3.00;;
13208;SDS011;6669;42.678;23.332;2023-06-26T12:02:04;3.50;;;3.20;;
13208;SDS011;6669;42.678;23.332;2023-06-26T12:04:33;3.42;;;3.13;;
13208;SDS011;6669;42.678;23.332;2023-06-26T12:07:02;3.38;;;3.08;;
13208;SDS011;6669;42.678;23.332;2023-06-26T12:09:33;4.05;;;3.30;;
13208;SDS011;6669;42.678;23.332;2023-06-26T12:12:05;6.18;;;5.55;;
13208;SDS011;6669;42.678;23.332;2023-06-26T12:14:35;3.67;;;3.38;;
13208;SDS011;6669;42.678;23.332;2023-06-26T12:17:07;3.30;;;3.00;;
13208;SDS011;6669;42.678;23.332;2023-06-26T12:19:37;3.30;;;3.00;;
13208;SDS011;6669;42.678;23.332;2023-06-26T12:22:06;3.22;;;2.92;;
13208;SDS011;6669;42.678;23.332;2023-06-26T12:24:35;3.22;;;2.90;;
13208;SDS011;6669;42.678;23.332;2023-06-26T12:27:07;6.15;;;2.75;;
13208;SDS011;6669;42.678;23.332;2023-06-26T12:29:37;3.38;;;3.08;;
13208;SDS011;6669;42.678;23.332;2023-06-26T12:32:11;2.83;;;2.60;;
13208;SDS011;6669;42.678;23.332;2023-06-26T12:34:41;3.28;;;2.90;;
13208;SDS011;6669;42.678;23.332;2023-06-26T12:37:09;3.10;;;2.83;;
13208;SDS011;6669;42.678;23.332;2023-06-26T12:39:46;2.97;;;2.67;;
13208;SDS011;6669;42.678;23.332;2023-06-26T12:42:16;3.90;;;3.20;;
13208;SDS011;6669;42.678;23.332;2023-06-26T12:44:45;3.95;;;3.40;;
13208;SDS011;6669;42.678;23.332;2023-06-26T12:47:15;4.05;;;3.30;;
13208;SDS011;6669;42.678;23.332;2023-06-26T12:49:44;3.20;;;2.90;;
13208;SDS011;6669;42.678;23.332;2023-06-26T12:52:17;3.38;;;3.08;;
13208;SDS011;6669;42.678;23.332;2023-06-26T12:54:46;3.13;;;2.83;;
13208;SDS011;6669;42.678;23.332;2023-06-26T12:57:19;3.17;;;2.90;;
13208;SDS011;6669;42.678;23.332;2023-06-26T12:59:47;4.78;;;3.30;;
13208;SDS011;6669;42.678;23.332;2023-06-26T13:02:17;3.47;;;2.88;;
13208;SDS011;6669;42.678;23.332;2023-06-26T13:04:46;3.47;;;3.17;;
13208;SDS011;6669;42.678;23.332;2023-06-26T13:07:14;3.22;;;2.92;;
13208;SDS011;6669;42.678;23.332;2023-06-26T13:09:43;5.18;;;3.45;;
13208;SDS011;6669;42.678;23.332;2023-06-26T13:12:12;3.33;;;3.03;;
13208;SDS011;6669;42.678;23.332;2023-06-26T13:14:40;4.10;;;3.70;;
13208;SDS011;6669;42.678;23.332;2023-06-26T13:17:08;3.53;;;3.17;;
13208;SDS011;6669;42.678;23.332;2023-06-26T13:19:37;3.33;;;3.03;;
13208;SDS011;6669;42.678;23.332;2023-06-26T13:22:05;3.33;;;3.03;;
13208;SDS011;6669;42.678;23.332;2023-06-26T13:24:33;3.33;;;3.00;;
13208;SDS011;6669;42.678;23.332;2023-06-26T13:27:01;3.90;;;3.45;;
13208;SDS011;6669;42.678;23.332;2023-06-26T13:29:30;3.53;;;3.22;;
13208;SDS011;6669;42.678;23.332;2023-06-26T13:31:59;3.20;;;2.90;;
13208;SDS011;6669;42.678;23.332;2023-06-26T13:34:27;3.58;;;3.17;;
13208;SDS011;6669;42.678;23.332;2023-06-26T13:36:57;3.05;;;2.72;;
13208;SDS011;6669;42.678;23.332;2023-06-26T13:39:26;3.60;;;2.75;;
13208;SDS011;6669;42.678;23.332;2023-06-26T13:41:55;3.40;;;2.70;;
13208;SDS011;6669;42.678;23.332;2023-06-26T13:44:23;3.45;;;2.97;;
13208;SDS011;6669;42.678;23.332;2023-06-26T13:47:06;3.15;;;2.83;;
13208;SDS011;6669;42.678;23.332;2023-06-26T13:49:36;3.50;;;3.20;;
13208;SDS011;6669;42.678;23.332;2023-06-26T13:52:05;3.17;;;2.88;;
13208;SDS011;6669;42.678;23.332;2023-06-26T13:54:35;3.30;;;3.00;;
13208;SDS011;6669;42.678;23.332;2023-06-26T13:57:03;3.35;;;3.05;;
13208;SDS011;6669;42.678;23.332;2023-06-26T13:59:32;4.47;;;3.35;;
13208;SDS011;6669;42.678;23.332;2023-06-26T14:02:00;3.92;;;3.53;;
13208;SDS011;6669;42.678;23.332;2023-06-26T14:04:28;3.38;;;3.08;;
13208;SDS011;6669;42.678;23.332;2023-06-26T14:06:56;3.60;;;3.30;;
13208;SDS011;6669;42.678;23.332;2023-06-26T14:09:26;3.70;;;3.40;;
13208;SDS011;6669;42.678;23.332;2023-06-26T14:11:54;4.45;;;3.15;;
13208;SDS011;6669;42.678;23.332;2023-06-26T14:14:22;3.40;;;3.10;;
13208;SDS011;6669;42.678;23.332;2023-06-26T14:16:50;3.70;;;3.40;;
13208;SDS011;6669;42.678;23.332;2023-06-26T14:19:18;3.33;;;3.03;;
13208;SDS011;6669;42.678;23.332;2023-06-26T14:21:46;3.92;;;3.53;;
13208;SDS011;6669;42.678;23.332;2023-06-26T14:24:14;3.28;;;2.97;;
13208;SDS011;6669;42.678;23.332;2023-06-26T14:26:43;3.10;;;2.80;;
13208;SDS011;6669;42.678;23.332;2023-06-26T14:29:11;4.68;;;2.75;;
13208;SDS011;6669;42.678;23.332;2023-06-26T14:31:43;3.25;;;2.83;;
13208;SDS011;6669;42.678;23.332;2023-06-26T14:34:15;3.60;;;3.30;;
13208;SDS011;6669;42.678;23.332;2023-06-26T14:36:43;3.33;;;3.03;;
13208;SDS011;6669;42.678;23.332;2023-06-26T14:39:11;3.88;;;3.50;;
13208;SDS011;6669;42.678;23.332;2023-06-26T14:41:39;4.05;;;3.50;;
13208;SDS011;6669;42.678;23.332;2023-06-26T14:44:09;6.57;;;3.40;;
13208;SDS011;6669;42.678;23.332;2023-06-26T14:46:38;3.83;;;3.42;;
13208;SDS011;6669;42.678;23.332;2023-06-26T14:49:06;4.20;;;3.80;;
13208;SDS011;6669;42.678;23.332;2023-06-26T14:51:34;4.93;;;3.90;;
13208;SDS011;6669;42.678;23.332;2023-06-26T14:54:04;6.30;;;4.90;;
13208;SDS011;6669;42.678;23.332;2023-06-26T14:56:32;6.40;;;4.90;;
13208;SDS011;6669;42.678;23.332;2023-06-26T14:59:00;4.20;;;3.70;;